createdAt,value
2022-07-30T00:01:14.907Z,4.63
2022-07-30T00:03:41.615Z,4.68
2022-07-30T00:06:08.327Z,4.25
2022-07-30T00:08:34.797Z,5.13
2022-07-30T00:11:01.407Z,4.35
2022-07-30T00:13:27.887Z,4.55
2022-07-30T00:15:54.399Z,4.80
2022-07-30T00:18:22.351Z,4.68
2022-07-30T00:20:49.092Z,5.15
2022-07-30T00:23:15.666Z,4.63
2022-07-30T00:25:42.203Z,4.72
2022-07-30T00:28:08.630Z,5.43
2022-07-30T00:30:35.229Z,5.00
2022-07-30T00:33:01.906Z,5.15
2022-07-30T00:35:28.512Z,5.40
2022-07-30T00:37:55.052Z,5.07
2022-07-30T00:40:21.779Z,4.85
2022-07-30T00:42:48.499Z,4.72
2022-07-30T00:45:16.752Z,4.55
2022-07-30T00:47:43.461Z,4.07
2022-07-30T00:50:12.551Z,4.50
2022-07-30T00:52:40.366Z,4.60
2022-07-30T00:55:09.164Z,4.00
2022-07-30T00:57:35.852Z,4.20
2022-07-30T01:00:04.888Z,4.72
2022-07-30T01:02:31.518Z,4.65
2022-07-30T01:04:57.989Z,4.68
2022-07-30T01:07:27.163Z,5.15
2022-07-30T01:09:53.918Z,5.10
2022-07-30T01:12:23.293Z,5.25
2022-07-30T01:14:50.744Z,4.95
2022-07-30T01:17:17.397Z,5.03
2022-07-30T01:19:55.891Z,4.85
2022-07-30T01:23:04.854Z,4.35
2022-07-30T01:25:32.198Z,4.80
2022-07-30T01:28:07.332Z,4.88
2022-07-30T01:30:38.530Z,5.15
2022-07-30T01:33:07.457Z,4.38
2022-07-30T01:35:35.690Z,4.95
2022-07-30T01:38:05.785Z,4.63
2022-07-30T01:40:34.928Z,4.50
2022-07-30T01:43:03.051Z,4.93
2022-07-30T01:45:31.388Z,4.78
2022-07-30T01:48:05.331Z,4.80
2022-07-30T01:50:32.752Z,5.00
2022-07-30T01:53:00.406Z,5.35
2022-07-30T01:55:32.443Z,5.50
2022-07-30T01:58:01.102Z,4.93
2022-07-30T02:00:34.545Z,4.53
2022-07-30T02:03:01.059Z,4.85
2022-07-30T02:05:31.492Z,4.30
2022-07-30T02:08:06.130Z,5.30
2022-07-30T02:10:36.949Z,5.20
2022-07-30T02:13:07.297Z,5.60
2022-07-30T02:15:52.444Z,5.50
2022-07-30T02:18:30.858Z,5.20
2022-07-30T02:21:07.255Z,5.80
2022-07-30T02:23:46.328Z,5.72
2022-07-30T02:26:20.695Z,5.43
2022-07-30T02:28:51.441Z,5.40
2022-07-30T02:31:25.361Z,5.22
2022-07-30T02:33:58.181Z,5.28
2022-07-30T02:36:27.633Z,5.30
2022-07-30T02:38:56.455Z,5.35
2022-07-30T02:41:26.669Z,4.80
2022-07-30T02:43:55.064Z,5.38
2022-07-30T02:46:24.011Z,5.95
2022-07-30T02:49:10.793Z,5.65
2022-07-30T02:51:40.157Z,5.13
2022-07-30T02:54:08.402Z,5.35
2022-07-30T02:56:37.503Z,5.03
2022-07-30T02:59:06.148Z,5.38
2022-07-30T03:01:33.982Z,4.90
2022-07-30T03:04:02.572Z,5.22
2022-07-30T03:06:30.691Z,5.05
2022-07-30T03:08:59.221Z,4.88
2022-07-30T03:11:27.965Z,5.05
2022-07-30T03:13:55.917Z,5.10
2022-07-30T03:16:24.760Z,5.05
2022-07-30T03:18:53.376Z,5.30
2022-07-30T03:21:21.950Z,5.35
2022-07-30T03:23:50.386Z,5.22
2022-07-30T03:26:21.419Z,5.53
2022-07-30T03:28:49.599Z,5.43
2022-07-30T03:31:16.968Z,5.65
2022-07-30T03:33:46.650Z,5.32
2022-07-30T03:36:15.641Z,4.93
2022-07-30T03:38:43.900Z,5.60
2022-07-30T03:41:11.510Z,5.53
2022-07-30T03:43:40.587Z,5.32
2022-07-30T03:46:09.406Z,5.53
2022-07-30T03:48:41.444Z,5.53
2022-07-30T03:51:11.437Z,5.75
2022-07-30T03:53:41.003Z,6.32
2022-07-30T03:56:27.453Z,5.20
2022-07-30T03:59:09.597Z,5.75
2022-07-30T04:01:39.974Z,6.30
2022-07-30T04:04:25.836Z,5.82
2022-07-30T04:06:53.889Z,5.53
2022-07-30T04:09:20.445Z,6.25
2022-07-30T04:11:48.228Z,6.30
2022-07-30T04:14:17.038Z,5.68
2022-07-30T04:17:00.417Z,5.97
2022-07-30T04:19:47.278Z,5.65
2022-07-30T04:22:20.327Z,5.45
2022-07-30T04:24:49.162Z,5.80
2022-07-30T04:27:17.004Z,5.38
2022-07-30T04:29:44.538Z,5.93
2022-07-30T04:32:12.133Z,5.20
2022-07-30T04:34:57.531Z,6.50
2022-07-30T04:37:42.839Z,5.70
2022-07-30T04:40:09.786Z,6.00
2022-07-30T04:42:36.481Z,6.20
2022-07-30T04:45:07.000Z,6.10
2022-07-30T04:47:48.485Z,5.60
2022-07-30T04:50:35.940Z,6.05
2022-07-30T04:53:05.885Z,5.57
2022-07-30T04:55:39.077Z,5.43
2022-07-30T04:58:07.188Z,5.45
2022-07-30T05:00:40.467Z,6.38
2022-07-30T05:03:12.961Z,5.57
2022-07-30T05:05:43.431Z,6.10
2022-07-30T05:08:10.196Z,6.22
2022-07-30T05:10:38.298Z,6.30
2022-07-30T05:13:11.122Z,6.60
2022-07-30T05:15:40.518Z,6.13
2022-07-30T05:18:10.693Z,5.45
2022-07-30T05:20:40.729Z,5.75
2022-07-30T05:23:15.150Z,5.70
2022-07-30T05:25:46.799Z,5.72
2022-07-30T05:28:16.513Z,5.82
2022-07-30T05:30:44.476Z,5.20
2022-07-30T05:33:16.082Z,4.95
2022-07-30T05:35:43.519Z,4.97
2022-07-30T05:38:10.271Z,4.90
2022-07-30T05:40:50.400Z,4.65
2022-07-30T05:43:38.070Z,5.43
2022-07-30T05:46:04.556Z,4.60
2022-07-30T05:48:35.155Z,4.80
2022-07-30T05:51:05.277Z,5.68
2022-07-30T05:53:32.013Z,6.07
2022-07-30T05:56:26.009Z,6.10
2022-07-30T05:59:02.618Z,5.60
2022-07-30T06:01:52.156Z,5.32
2022-07-30T06:04:25.465Z,5.45
2022-07-30T06:06:58.283Z,5.15
2022-07-30T06:09:36.120Z,4.40
2022-07-30T06:12:04.650Z,4.53
2022-07-30T06:14:32.316Z,4.70
2022-07-30T06:16:59.391Z,4.53
2022-07-30T06:19:30.858Z,4.63
2022-07-30T06:22:05.592Z,4.22
2022-07-30T06:24:38.742Z,4.25
2022-07-30T06:27:18.520Z,4.05
2022-07-30T06:29:45.017Z,4.13
2022-07-30T06:32:11.800Z,4.07
2022-07-30T06:34:38.344Z,4.55
2022-07-30T06:37:04.853Z,4.55
2022-07-30T06:39:57.526Z,4.20
2022-07-30T06:42:45.149Z,4.30
2022-07-30T06:45:35.880Z,3.30
2022-07-30T06:48:16.555Z,3.47
2022-07-30T06:50:43.346Z,2.97
2022-07-30T06:53:10.269Z,3.20
2022-07-30T06:55:58.572Z,3.08
2022-07-30T06:58:31.813Z,2.95
2022-07-30T07:01:18.470Z,2.92
2022-07-30T07:03:45.254Z,3.15
2022-07-30T07:06:11.694Z,2.80
2022-07-30T07:08:38.567Z,2.90
2022-07-30T07:11:06.733Z,2.70
2022-07-30T07:13:42.544Z,3.30
2022-07-30T07:16:12.990Z,2.97
2022-07-30T07:18:43.614Z,3.40
2022-07-30T07:21:10.728Z,2.67
2022-07-30T07:23:41.727Z,3.42
2022-07-30T07:26:14.036Z,3.05
2022-07-30T07:28:40.920Z,3.25
2022-07-30T07:31:10.729Z,3.03
2022-07-30T07:33:38.400Z,3.10
2022-07-30T07:36:05.168Z,3.00
2022-07-30T07:38:32.586Z,2.85
2022-07-30T07:41:00.112Z,2.83
2022-07-30T07:43:27.946Z,2.80
2022-07-30T07:45:58.915Z,3.42
2022-07-30T07:48:28.252Z,2.63
2022-07-30T07:51:02.426Z,2.90
2022-07-30T07:53:32.104Z,3.20
2022-07-30T07:55:59.549Z,2.78
2022-07-30T07:58:26.884Z,2.63
2022-07-30T08:00:57.377Z,2.97
2022-07-30T08:03:39.682Z,3.03
2022-07-30T08:06:25.392Z,2.88
2022-07-30T08:09:23.876Z,2.85
2022-07-30T08:12:05.894Z,2.78
2022-07-30T08:14:50.767Z,2.92
2022-07-30T08:17:47.024Z,2.70
2022-07-30T08:20:19.530Z,2.70
2022-07-30T08:22:45.998Z,3.00
2022-07-30T08:25:22.433Z,2.92
2022-07-30T08:27:52.578Z,3.15
2022-07-30T08:30:19.931Z,2.95
2022-07-30T08:32:46.425Z,3.20
2022-07-30T08:35:13.578Z,2.58
2022-07-30T08:37:41.076Z,2.90
2022-07-30T08:40:08.646Z,2.80
2022-07-30T08:42:42.490Z,2.92
2022-07-30T08:45:12.301Z,2.90
2022-07-30T08:47:40.896Z,2.50
2022-07-30T08:50:11.435Z,2.80
2022-07-30T08:52:55.706Z,2.50
2022-07-30T08:55:23.367Z,2.78
2022-07-30T08:57:50.551Z,2.40
2022-07-30T09:00:18.678Z,2.17
2022-07-30T09:02:45.240Z,2.63
2022-07-30T09:05:13.079Z,2.22
2022-07-30T09:07:40.094Z,2.20
2022-07-30T09:10:11.851Z,2.25
2022-07-30T09:12:41.898Z,2.25
2022-07-30T09:15:18.146Z,2.50
2022-07-30T09:17:51.871Z,2.60
2022-07-30T09:20:20.838Z,2.33
2022-07-30T09:22:58.744Z,2.40
2022-07-30T09:25:46.589Z,2.88
2022-07-30T09:28:34.907Z,2.20
2022-07-30T09:31:13.560Z,2.85
2022-07-30T09:34:30.756Z,3.20
2022-07-30T09:37:02.362Z,2.25
2022-07-30T09:39:59.518Z,2.33
2022-07-30T09:42:45.029Z,2.10
2022-07-30T09:45:14.077Z,2.50
2022-07-30T09:47:48.432Z,2.40
2022-07-30T09:50:29.403Z,2.05
2022-07-30T09:53:07.407Z,2.35
2022-07-30T09:55:36.451Z,2.22
2022-07-30T09:58:09.124Z,2.00
2022-07-30T10:00:37.191Z,2.38
2022-07-30T10:03:33.575Z,1.88
2022-07-30T10:06:35.145Z,1.95
2022-07-30T10:09:14.366Z,1.92
2022-07-30T10:11:48.336Z,1.90
2022-07-30T10:14:15.340Z,2.17
2022-07-30T10:16:42.218Z,2.10
2022-07-30T10:19:13.793Z,2.08
2022-07-30T10:22:11.619Z,2.17
2022-07-30T10:24:57.180Z,2.10
2022-07-30T10:27:42.574Z,2.00
2022-07-30T10:30:28.025Z,2.30
2022-07-30T10:32:57.529Z,2.55
2022-07-30T10:35:31.222Z,2.00
2022-07-30T10:38:08.106Z,2.05
2022-07-30T10:40:40.504Z,1.80
2022-07-30T10:43:31.505Z,1.60
2022-07-30T10:46:19.949Z,1.80
2022-07-30T10:48:50.093Z,2.10
2022-07-30T10:51:25.651Z,2.00
2022-07-30T10:54:01.116Z,1.55
2022-07-30T10:56:27.798Z,1.73
2022-07-30T10:59:09.688Z,1.85
2022-07-30T11:01:51.750Z,1.48
2022-07-30T11:04:25.845Z,1.63
2022-07-30T11:07:23.997Z,1.77
2022-07-30T11:10:09.204Z,1.60
2022-07-30T11:12:42.190Z,1.48
2022-07-30T11:15:19.015Z,1.65
2022-07-30T11:18:12.238Z,1.40
2022-07-30T11:20:40.611Z,1.60
2022-07-30T11:23:20.698Z,1.50
2022-07-30T11:25:51.370Z,1.70
2022-07-30T11:28:37.571Z,1.60
2022-07-30T11:31:30.787Z,1.73
2022-07-30T11:34:18.170Z,1.50
2022-07-30T11:37:18.269Z,1.67
2022-07-30T11:39:55.186Z,1.80
2022-07-30T11:42:39.173Z,1.55
2022-07-30T11:45:20.028Z,1.85
2022-07-30T11:47:55.395Z,1.58
2022-07-30T11:50:25.818Z,1.60
2022-07-30T11:52:54.049Z,2.20
2022-07-30T11:55:42.363Z,1.75
2022-07-30T11:58:25.002Z,1.60
2022-07-30T12:00:52.496Z,1.60
2022-07-30T12:03:21.293Z,1.52
2022-07-30T12:05:53.126Z,1.70
2022-07-30T12:08:35.929Z,1.90
2022-07-30T12:11:03.236Z,1.70
2022-07-30T12:13:45.074Z,1.70
2022-07-30T12:16:18.274Z,1.70
2022-07-30T12:18:45.865Z,1.50
2022-07-30T12:21:15.608Z,1.60
2022-07-30T12:23:43.595Z,1.65
2022-07-30T12:26:31.553Z,1.73
2022-07-30T12:29:00.684Z,1.50
2022-07-30T12:31:27.514Z,1.73
2022-07-30T12:33:58.255Z,1.50
2022-07-30T12:36:44.097Z,1.40
2022-07-30T12:39:19.258Z,1.58
2022-07-30T12:41:48.155Z,1.73
2022-07-30T12:44:33.785Z,1.60
2022-07-30T12:47:00.902Z,1.75
2022-07-30T12:49:37.744Z,1.50
2022-07-30T12:52:13.163Z,1.50
2022-07-30T12:54:40.492Z,1.55
2022-07-30T12:57:07.271Z,1.63
2022-07-30T12:59:35.276Z,1.55
2022-07-30T13:02:03.588Z,1.10
2022-07-30T13:04:31.508Z,1.20
2022-07-30T13:07:09.578Z,1.20
2022-07-30T13:09:36.987Z,1.23
2022-07-30T13:12:04.445Z,1.10
2022-07-30T13:14:30.942Z,1.15
2022-07-30T13:16:58.256Z,1.30
2022-07-30T13:19:26.511Z,1.10
2022-07-30T13:21:53.024Z,0.70
2022-07-30T13:24:19.749Z,0.80
2022-07-30T13:26:46.718Z,0.85
2022-07-30T13:29:13.618Z,0.98
2022-07-30T13:31:42.808Z,1.20
2022-07-30T13:34:09.974Z,1.02
2022-07-30T13:36:36.577Z,0.90
2022-07-30T13:39:03.321Z,0.93
2022-07-30T13:41:30.125Z,0.73
2022-07-30T13:43:56.619Z,0.73
2022-07-30T13:46:23.160Z,0.90
2022-07-30T13:48:49.920Z,0.90
2022-07-30T13:51:16.578Z,0.90
2022-07-30T13:53:43.208Z,0.70
2022-07-30T13:56:12.873Z,0.90
2022-07-30T13:58:40.460Z,0.77
2022-07-30T14:01:07.101Z,1.10
2022-07-30T14:03:35.114Z,0.80
2022-07-30T14:06:10.512Z,1.00
2022-07-30T14:08:37.713Z,0.80
2022-07-30T14:11:04.314Z,1.13
2022-07-30T14:13:32.332Z,0.90
2022-07-30T14:15:58.900Z,0.85
2022-07-30T14:18:25.341Z,0.85
2022-07-30T14:20:53.589Z,0.80
2022-07-30T14:23:20.533Z,1.27
2022-07-30T14:25:47.256Z,0.90
2022-07-30T14:28:14.676Z,1.00
2022-07-30T14:30:41.939Z,0.75
2022-07-30T14:33:08.602Z,0.85
2022-07-30T14:35:35.464Z,0.77
2022-07-30T14:38:03.360Z,1.00
2022-07-30T14:40:30.167Z,0.98
2022-07-30T14:42:56.578Z,0.90
2022-07-30T14:45:24.608Z,0.85
2022-07-30T14:47:52.307Z,0.70
2022-07-30T14:50:19.756Z,0.95
2022-07-30T14:52:47.534Z,1.02
2022-07-30T14:55:14.269Z,0.80
2022-07-30T14:57:40.885Z,0.82
2022-07-30T15:00:12.762Z,0.80
2022-07-30T15:02:40.746Z,0.88
2022-07-30T15:05:08.205Z,0.80
2022-07-30T15:07:35.201Z,1.00
2022-07-30T15:10:02.449Z,0.82
2022-07-30T15:12:29.129Z,0.93
2022-07-30T15:14:55.640Z,1.00
2022-07-30T15:17:22.259Z,1.15
2022-07-30T15:19:50.173Z,0.70
2022-07-30T15:22:19.112Z,0.93
2022-07-30T15:24:45.576Z,0.68
2022-07-30T15:27:12.097Z,0.80
2022-07-30T15:29:38.509Z,0.90
2022-07-30T15:32:05.769Z,0.90
2022-07-30T15:34:34.284Z,0.80
2022-07-30T15:37:02.512Z,0.68
2022-07-30T15:39:29.575Z,0.65
2022-07-30T15:41:57.010Z,0.80
2022-07-30T15:44:24.212Z,0.73
2022-07-30T15:46:50.785Z,0.93
2022-07-30T15:49:19.024Z,0.90
2022-07-30T15:51:48.729Z,0.90
2022-07-30T15:54:22.597Z,0.80
2022-07-30T15:56:50.710Z,0.95
2022-07-30T15:59:17.825Z,1.10
2022-07-30T16:01:44.594Z,0.80
2022-07-30T16:04:19.061Z,0.80
2022-07-30T16:06:47.616Z,0.80
2022-07-30T16:09:14.711Z,1.20
2022-07-30T16:11:42.854Z,0.77
2022-07-30T16:14:09.663Z,1.00
2022-07-30T16:16:36.354Z,0.70
2022-07-30T16:19:02.959Z,0.95
2022-07-30T16:21:29.371Z,0.80
2022-07-30T16:23:56.678Z,0.73
2022-07-30T16:26:23.138Z,0.77
2022-07-30T16:28:49.926Z,0.73
2022-07-30T16:31:16.453Z,0.75
2022-07-30T16:33:43.202Z,1.02
2022-07-30T16:36:09.999Z,0.70
2022-07-30T16:38:36.716Z,0.75
2022-07-30T16:41:03.746Z,0.70
2022-07-30T16:43:31.828Z,0.80
2022-07-30T16:45:59.015Z,0.90
2022-07-30T16:48:26.412Z,0.70
2022-07-30T16:50:53.454Z,0.80
2022-07-30T16:53:19.968Z,0.70
2022-07-30T16:55:46.937Z,0.65
2022-07-30T16:58:13.692Z,0.70
2022-07-30T17:00:40.451Z,0.70
2022-07-30T17:03:07.115Z,0.70
2022-07-30T17:05:33.557Z,0.50
2022-07-30T17:08:00.150Z,0.60
2022-07-30T17:10:27.769Z,0.70
2022-07-30T17:12:57.138Z,0.60
2022-07-30T17:15:32.746Z,0.70
2022-07-30T17:18:00.560Z,0.70
2022-07-30T17:20:27.376Z,0.65
2022-07-30T17:22:56.469Z,0.70
2022-07-30T17:25:27.120Z,0.90
2022-07-30T17:27:55.735Z,0.60
2022-07-30T17:30:23.250Z,0.60
2022-07-30T17:32:50.708Z,0.50
2022-07-30T17:35:17.282Z,0.93
2022-07-30T17:37:43.746Z,0.93
2022-07-30T17:40:29.354Z,0.70
2022-07-30T17:43:05.514Z,0.70
2022-07-30T17:45:33.510Z,0.80
2022-07-30T17:48:01.549Z,0.80
2022-07-30T17:50:28.444Z,0.85
2022-07-30T17:52:55.394Z,0.60
2022-07-30T17:55:21.966Z,0.60
2022-07-30T17:57:48.387Z,0.70
2022-07-30T18:00:15.179Z,0.68
2022-07-30T18:02:41.882Z,1.00
2022-07-30T18:05:10.508Z,0.80
2022-07-30T18:07:39.432Z,0.82
2022-07-30T18:10:07.127Z,0.73
2022-07-30T18:12:34.369Z,0.73
2022-07-30T18:15:01.593Z,0.70
2022-07-30T18:17:28.196Z,1.20
2022-07-30T18:19:54.722Z,1.30
2022-07-30T18:22:28.216Z,1.58
2022-07-30T18:24:57.198Z,2.05
2022-07-30T18:27:23.824Z,1.65
2022-07-30T18:29:50.262Z,1.40
2022-07-30T18:32:16.795Z,1.77
2022-07-30T18:34:43.278Z,1.80
2022-07-30T18:37:09.707Z,1.77
2022-07-30T18:39:36.202Z,1.90
2022-07-30T18:42:03.587Z,1.70
2022-07-30T18:44:30.766Z,2.00
2022-07-30T18:46:57.204Z,1.80
2022-07-30T18:49:39.070Z,1.90
2022-07-30T18:52:08.369Z,1.83
2022-07-30T18:54:36.210Z,2.08
2022-07-30T18:57:03.149Z,1.70
2022-07-30T18:59:29.791Z,2.00
2022-07-30T19:01:56.323Z,1.90
2022-07-30T19:04:23.044Z,1.90
2022-07-30T19:06:49.469Z,1.90
2022-07-30T19:09:17.932Z,1.70
2022-07-30T19:11:46.100Z,1.88
2022-07-30T19:14:14.718Z,1.63
2022-07-30T19:16:46.086Z,2.00
2022-07-30T19:19:14.469Z,1.85
2022-07-30T19:21:41.444Z,1.65
2022-07-30T19:24:08.602Z,1.75
2022-07-30T19:26:39.690Z,1.75
2022-07-30T19:29:10.048Z,1.70
2022-07-30T19:31:36.606Z,2.15
2022-07-30T19:34:04.030Z,1.80
2022-07-30T19:36:30.486Z,1.75
2022-07-30T19:38:58.767Z,1.80
2022-07-30T19:41:25.300Z,1.90
2022-07-30T19:43:57.818Z,1.55
2022-07-30T19:46:25.320Z,1.92
2022-07-30T19:48:51.871Z,1.77
2022-07-30T19:51:20.953Z,1.80
2022-07-30T19:53:47.721Z,2.00
2022-07-30T19:56:14.311Z,1.83
2022-07-30T19:58:41.188Z,2.10
2022-07-30T20:01:08.325Z,1.80
2022-07-30T20:03:35.834Z,2.20
2022-07-30T20:06:05.971Z,1.98
2022-07-30T20:08:37.681Z,1.80
2022-07-30T20:11:07.135Z,2.05
2022-07-30T20:13:44.551Z,1.90
2022-07-30T20:16:13.804Z,2.10
2022-07-30T20:18:41.162Z,1.73
2022-07-30T20:21:12.617Z,2.00
2022-07-30T20:23:41.313Z,2.08
2022-07-30T20:26:13.431Z,1.70
2022-07-30T20:28:47.631Z,1.98
2022-07-30T20:31:20.809Z,1.70
2022-07-30T20:33:49.527Z,1.80
2022-07-30T20:36:18.268Z,1.70
2022-07-30T20:38:46.978Z,1.80
2022-07-30T20:41:14.747Z,1.83
2022-07-30T20:43:51.657Z,2.10
2022-07-30T20:46:20.410Z,1.77
2022-07-30T20:48:47.173Z,2.28
2022-07-30T20:51:13.799Z,1.92
2022-07-30T20:53:41.779Z,1.90
2022-07-30T20:56:12.131Z,2.20
2022-07-30T20:58:40.784Z,2.05
2022-07-30T21:01:07.754Z,2.17
2022-07-30T21:03:34.389Z,2.30
2022-07-30T21:06:03.085Z,2.15
2022-07-30T21:08:31.281Z,2.55
2022-07-30T21:10:57.757Z,2.00
2022-07-30T21:13:26.908Z,2.05
2022-07-30T21:16:02.297Z,2.15
2022-07-30T21:18:30.670Z,1.92
2022-07-30T21:20:57.489Z,2.30
2022-07-30T21:23:24.744Z,2.17
2022-07-30T21:26:01.351Z,2.08
2022-07-30T21:28:35.165Z,2.13
2022-07-30T21:31:02.813Z,1.92
2022-07-30T21:33:31.635Z,2.38
2022-07-30T21:35:59.062Z,2.45
2022-07-30T21:38:26.618Z,2.15
2022-07-30T21:40:53.645Z,2.85
2022-07-30T21:43:29.471Z,2.65
2022-07-30T21:45:56.827Z,3.10
2022-07-30T21:48:24.281Z,2.95
2022-07-30T21:50:50.750Z,2.60
2022-07-30T21:53:17.168Z,2.53
2022-07-30T21:55:56.671Z,2.50
2022-07-30T21:58:24.094Z,2.85
2022-07-30T22:00:54.906Z,2.47
2022-07-30T22:04:05.103Z,2.70
2022-07-30T22:10:21.459Z,2.75
2022-07-30T22:12:48.511Z,2.65
2022-07-30T22:15:15.159Z,2.83
2022-07-30T22:18:00.540Z,2.58
2022-07-30T22:24:33.887Z,2.70
2022-07-30T22:27:09.720Z,2.63
2022-07-30T22:29:41.494Z,2.55
2022-07-30T22:32:09.639Z,2.63
2022-07-30T22:34:37.325Z,2.30
2022-07-30T22:37:03.773Z,2.38
2022-07-30T22:39:31.697Z,2.72
2022-07-30T22:42:16.022Z,2.20
2022-07-30T22:44:46.258Z,2.10
2022-07-30T22:47:18.787Z,2.15
2022-07-30T22:49:52.063Z,2.30
2022-07-30T22:52:28.928Z,2.10
2022-07-30T22:57:43.382Z,2.13
2022-07-30T23:00:27.349Z,2.15
2022-07-30T23:02:56.150Z,2.33
2022-07-30T23:05:22.714Z,2.33
2022-07-30T23:07:50.353Z,2.28
2022-07-30T23:10:18.673Z,2.25
2022-07-30T23:12:30.761Z,2.38
2022-07-30T23:13:04.825Z,2.47
2022-07-30T23:15:31.455Z,2.40
2022-07-30T23:17:57.938Z,2.63
2022-07-30T23:20:26.736Z,2.40
2022-07-30T23:22:53.199Z,2.28
2022-07-30T23:25:19.674Z,2.58
2022-07-30T23:27:46.781Z,2.30
2022-07-30T23:30:13.680Z,2.17
2022-07-30T23:32:40.344Z,2.45
2022-07-30T23:35:08.869Z,2.40
2022-07-30T23:37:49.174Z,2.50
2022-07-30T23:40:19.161Z,2.58
2022-07-30T23:42:46.725Z,2.40
2022-07-30T23:45:13.215Z,2.25
2022-07-30T23:47:52.951Z,2.20
2022-07-30T23:50:26.491Z,2.40
2022-07-30T23:52:53.071Z,2.15
2022-07-30T23:55:19.575Z,2.25
2022-07-30T23:57:46.077Z,2.47
